createdAt,value
2023-04-17T00:01:06.289Z,8.61
2023-04-17T00:04:10.970Z,8.57
2023-04-17T00:07:15.705Z,8.62
2023-04-17T00:10:18.541Z,8.61
2023-04-17T00:13:21.312Z,8.57
2023-04-17T00:16:24.398Z,8.48
2023-04-17T00:19:27.199Z,8.58
2023-04-17T00:22:31.383Z,8.55
2023-04-17T00:25:34.232Z,8.51
2023-04-17T00:28:37.212Z,8.48
2023-04-17T00:31:40.285Z,8.43
2023-04-17T00:34:43.159Z,8.54
2023-04-17T00:37:48.786Z,8.51
2023-04-17T00:40:54.795Z,8.44
2023-04-17T00:43:57.552Z,8.46
2023-04-17T00:47:00.340Z,8.38
2023-04-17T00:50:04.047Z,8.38
2023-04-17T00:53:08.464Z,8.42
2023-04-17T00:56:11.932Z,8.40
2023-04-17T00:59:18.488Z,8.34
2023-04-17T01:02:21.677Z,8.23
2023-04-17T01:05:25.214Z,8.17
2023-04-17T01:08:30.723Z,8.18
2023-04-17T01:11:33.907Z,8.15
2023-04-17T01:14:36.789Z,8.30
2023-04-17T01:17:39.930Z,8.22
2023-04-17T01:20:43.274Z,8.12
2023-04-17T01:23:52.005Z,8.24
2023-04-17T01:26:56.354Z,8.12
2023-04-17T01:29:59.080Z,7.95
2023-04-17T01:33:02.109Z,8.04
2023-04-17T01:36:05.671Z,8.02
2023-04-17T01:39:08.443Z,7.98
2023-04-17T01:42:12.720Z,7.88
2023-04-17T01:45:15.550Z,7.97
2023-04-17T01:48:18.539Z,7.90
2023-04-17T01:51:21.597Z,7.90
2023-04-17T01:54:24.959Z,7.85
2023-04-17T01:57:29.347Z,7.76
2023-04-17T02:00:32.320Z,7.77
2023-04-17T02:03:35.489Z,7.71
2023-04-17T02:06:38.895Z,7.76
2023-04-17T02:09:41.683Z,7.83
2023-04-17T02:12:46.146Z,7.72
2023-04-17T02:15:49.021Z,7.77
2023-04-17T02:18:53.217Z,7.71
2023-04-17T02:21:56.226Z,7.63
2023-04-17T02:24:59.154Z,7.63
2023-04-17T02:28:03.829Z,7.62
2023-04-17T02:31:08.783Z,7.59
2023-04-17T02:34:12.746Z,7.58
2023-04-17T02:37:15.971Z,7.46
2023-04-17T02:40:18.925Z,7.46
2023-04-17T02:43:23.134Z,7.50
2023-04-17T02:46:25.930Z,7.60
2023-04-17T02:49:28.817Z,7.51
2023-04-17T02:52:32.597Z,7.43
2023-04-17T02:55:35.667Z,7.39
2023-04-17T02:58:39.891Z,7.46
2023-04-17T03:01:42.931Z,7.36
2023-04-17T03:04:45.809Z,7.44
2023-04-17T03:07:48.756Z,7.42
2023-04-17T03:10:51.505Z,7.43
2023-04-17T03:13:55.655Z,7.47
2023-04-17T03:16:58.455Z,7.39
2023-04-17T03:20:01.360Z,7.27
2023-04-17T03:23:04.096Z,7.22
2023-04-17T03:26:06.874Z,7.25
2023-04-17T03:29:11.393Z,7.27
2023-04-17T03:32:14.304Z,7.19
2023-04-17T03:35:17.210Z,7.19
2023-04-17T03:38:20.205Z,7.20
2023-04-17T03:41:22.949Z,7.17
2023-04-17T03:44:27.160Z,7.20
2023-04-17T03:47:30.523Z,7.19
2023-04-17T03:50:33.448Z,7.04
2023-04-17T03:53:36.213Z,7.00
2023-04-17T03:56:38.962Z,6.94
2023-04-17T03:59:43.199Z,7.00
2023-04-17T04:02:46.404Z,6.88
2023-04-17T04:05:49.429Z,6.87
2023-04-17T04:08:52.599Z,6.86
2023-04-17T04:11:55.627Z,6.76
2023-04-17T04:15:00.202Z,6.74
2023-04-17T04:18:03.086Z,6.73
2023-04-17T04:21:06.247Z,6.79
2023-04-17T04:24:10.055Z,6.76
2023-04-17T04:27:12.975Z,6.73
2023-04-17T04:30:17.863Z,6.80
2023-04-17T04:33:21.552Z,6.83
2023-04-17T04:36:25.112Z,6.86
2023-04-17T04:39:29.847Z,6.90
2023-04-17T04:42:32.963Z,6.96
2023-04-17T04:45:37.282Z,6.92
2023-04-17T04:48:42.053Z,7.01
2023-04-17T04:51:45.951Z,7.13
2023-04-17T04:54:48.728Z,7.12
2023-04-17T04:57:53.537Z,7.16
2023-04-17T05:00:57.789Z,7.22
2023-04-17T05:04:01.145Z,7.35
2023-04-17T05:07:05.112Z,7.37
2023-04-17T05:10:08.851Z,7.42
2023-04-17T05:13:11.658Z,7.49
2023-04-17T05:16:15.823Z,7.37
2023-04-17T05:19:18.654Z,7.31
2023-04-17T05:22:21.712Z,7.46
2023-04-17T05:25:24.492Z,7.44
2023-04-17T05:28:29.654Z,7.45
2023-04-17T05:31:33.861Z,7.55
2023-04-17T05:34:36.818Z,7.42
2023-04-17T05:37:39.730Z,7.40
2023-04-17T05:40:42.459Z,7.39
2023-04-17T05:43:45.442Z,7.34
2023-04-17T05:46:49.517Z,7.30
2023-04-17T05:49:57.449Z,7.31
2023-04-17T05:53:00.226Z,7.22
2023-04-17T05:56:04.077Z,7.31
2023-04-17T05:59:07.017Z,7.28
2023-04-17T06:02:11.538Z,7.39
2023-04-17T06:05:14.568Z,7.43
2023-04-17T06:08:17.623Z,7.54
2023-04-17T06:11:20.328Z,7.54
2023-04-17T06:14:23.147Z,7.45
2023-04-17T06:17:27.306Z,7.71
2023-04-17T06:20:30.058Z,7.61
2023-04-17T06:23:32.971Z,7.64
2023-04-17T06:26:35.737Z,7.75
2023-04-17T06:29:38.749Z,7.77
2023-04-17T06:32:44.301Z,8.07
2023-04-17T06:35:47.201Z,8.18
2023-04-17T06:38:50.221Z,8.37
2023-04-17T06:41:53.041Z,8.25
2023-04-17T06:44:56.210Z,8.22
2023-04-17T06:48:00.440Z,8.44
2023-04-17T06:51:03.411Z,8.78
2023-04-17T06:54:06.250Z,9.01
2023-04-17T06:57:10.792Z,8.94
2023-04-17T07:00:14.838Z,9.03
2023-04-17T07:03:19.049Z,9.31
2023-04-17T07:06:23.306Z,9.73
2023-04-17T07:09:27.261Z,10.23
2023-04-17T07:12:30.005Z,10.81
2023-04-17T07:15:32.808Z,11.60
2023-04-17T07:18:36.974Z,12.13
2023-04-17T07:21:39.828Z,12.57
2023-04-17T07:24:42.671Z,12.67
2023-04-17T07:27:45.386Z,12.39
2023-04-17T07:30:48.124Z,12.34
2023-04-17T07:33:52.253Z,12.86
2023-04-17T07:36:56.721Z,13.30
2023-04-17T07:39:59.439Z,13.40
2023-04-17T07:43:02.274Z,13.49
2023-04-17T07:46:05.341Z,12.91
2023-04-17T07:49:12.202Z,12.84
2023-04-17T07:52:17.776Z,13.36
2023-04-17T07:55:20.636Z,13.22
2023-04-17T07:58:24.184Z,13.42
2023-04-17T08:01:27.766Z,13.90
2023-04-17T08:04:33.009Z,14.06
2023-04-17T08:07:36.552Z,14.71
2023-04-17T08:10:39.274Z,14.48
2023-04-17T08:13:42.204Z,14.27
2023-04-17T08:16:45.146Z,14.22
2023-04-17T08:19:50.253Z,14.29
2023-04-17T08:22:53.157Z,14.24
2023-04-17T08:25:55.899Z,13.72
2023-04-17T08:29:01.501Z,13.38
2023-04-17T08:32:13.389Z,13.70
2023-04-17T08:35:19.282Z,14.92
2023-04-17T08:38:22.113Z,15.19
2023-04-17T08:41:29.377Z,14.89
2023-04-17T08:44:32.199Z,14.24
2023-04-17T08:47:35.623Z,13.98
2023-04-17T08:50:41.114Z,13.37
2023-04-17T08:53:43.953Z,14.00
2023-04-17T08:56:46.699Z,14.62
2023-04-17T08:59:49.437Z,14.21
2023-04-17T09:02:56.863Z,14.24
2023-04-17T09:06:01.244Z,14.64
2023-04-17T09:09:04.512Z,15.37
2023-04-17T09:12:10.376Z,15.00
2023-04-17T09:15:17.377Z,14.73
2023-04-17T09:18:25.749Z,15.05
2023-04-17T09:21:29.977Z,14.82
2023-04-17T09:24:37.675Z,15.10
2023-04-17T09:27:40.661Z,15.73
2023-04-17T09:30:43.616Z,15.10
2023-04-17T09:33:57.563Z,14.87
2023-04-17T09:37:01.734Z,14.59
2023-04-17T09:40:08.049Z,14.60
2023-04-17T09:43:11.650Z,15.09
2023-04-17T09:46:31.184Z,15.29
2023-04-17T09:49:40.618Z,14.69
2023-04-17T09:52:45.034Z,14.88
2023-04-17T09:55:49.223Z,15.79
2023-04-17T09:58:54.329Z,15.79
2023-04-17T10:01:57.233Z,15.88
2023-04-17T10:05:01.076Z,16.01
2023-04-17T10:08:05.771Z,16.26
2023-04-17T10:11:09.486Z,16.40
2023-04-17T10:14:18.116Z,17.07
2023-04-17T10:17:24.529Z,17.37
2023-04-17T10:20:35.500Z,17.27
2023-04-17T10:23:41.082Z,17.05
2023-04-17T10:26:43.947Z,16.76
2023-04-17T10:29:56.920Z,16.88
2023-04-17T10:33:22.770Z,17.21
2023-04-17T10:36:58.640Z,17.81
2023-04-17T10:40:03.754Z,17.81
2023-04-17T10:43:12.327Z,17.14
2023-04-17T10:46:16.241Z,16.62
2023-04-17T10:49:21.123Z,16.53
2023-04-17T10:52:40.808Z,17.07
2023-04-17T10:55:50.661Z,17.47
2023-04-17T10:58:58.824Z,17.82
2023-04-17T11:02:04.620Z,17.19
2023-04-17T11:05:08.541Z,16.23
2023-04-17T11:08:12.205Z,15.31
2023-04-17T11:11:23.577Z,14.98
2023-04-17T11:14:42.587Z,14.60
2023-04-17T11:17:49.326Z,14.75
2023-04-17T11:20:53.513Z,15.36
2023-04-17T11:23:56.362Z,15.58
2023-04-17T11:27:01.784Z,15.66
2023-04-17T11:30:04.888Z,15.00
2023-04-17T11:33:09.163Z,14.97
2023-04-17T11:36:12.228Z,15.16
2023-04-17T11:39:16.092Z,15.38
2023-04-17T11:42:28.092Z,15.46
2023-04-17T11:45:32.436Z,15.08
2023-04-17T11:48:35.958Z,14.91
2023-04-17T11:51:38.826Z,14.66
2023-04-17T11:54:41.576Z,14.85
2023-04-17T11:57:45.687Z,15.08
2023-04-17T12:01:05.433Z,15.30
2023-04-17T12:04:21.711Z,15.80
2023-04-17T12:07:25.569Z,16.34
2023-04-17T12:10:40.741Z,16.28
2023-04-17T12:13:44.929Z,15.78
2023-04-17T12:16:50.213Z,15.22
2023-04-17T12:19:53.165Z,14.82
2023-04-17T12:22:55.881Z,14.79
2023-04-17T12:25:58.706Z,14.82
2023-04-17T12:29:03.423Z,14.58
2023-04-17T12:32:06.647Z,14.23
2023-04-17T12:35:10.344Z,13.75
2023-04-17T12:38:13.759Z,13.39
2023-04-17T12:41:16.644Z,13.27
2023-04-17T12:44:20.695Z,12.97
2023-04-17T12:47:23.545Z,12.74
2023-04-17T12:50:26.379Z,12.67
2023-04-17T12:53:29.921Z,12.52
2023-04-17T12:56:32.966Z,12.33
2023-04-17T12:59:37.012Z,12.36
2023-04-17T13:02:39.875Z,12.24
2023-04-17T13:05:42.997Z,12.08
2023-04-17T13:08:45.858Z,11.82
2023-04-17T13:11:48.729Z,11.76
2023-04-17T13:14:52.999Z,11.91
2023-04-17T13:17:55.972Z,11.85
2023-04-17T13:20:58.871Z,11.96
2023-04-17T13:24:01.598Z,11.96
2023-04-17T13:27:05.122Z,12.14
2023-04-17T13:30:10.802Z,12.22
2023-04-17T13:33:13.500Z,12.26
2023-04-17T13:39:36.793Z,11.99
2023-04-17T13:42:39.679Z,11.74
2023-04-17T13:45:43.758Z,11.63
2023-04-17T13:48:46.514Z,11.34
2023-04-17T13:51:49.333Z,11.30
2023-04-17T13:54:51.988Z,11.23
2023-04-17T13:57:55.082Z,11.33
2023-04-17T14:00:59.163Z,11.23
2023-04-17T14:04:02.130Z,11.15
2023-04-17T14:07:05.465Z,11.07
2023-04-17T14:10:09.896Z,11.04
2023-04-17T14:13:12.693Z,11.14
2023-04-17T14:16:18.670Z,11.06
2023-04-17T14:19:21.581Z,11.01
2023-04-17T14:22:24.416Z,11.03
2023-04-17T14:25:27.199Z,10.89
2023-04-17T14:28:30.028Z,10.75
2023-04-17T14:31:34.260Z,10.79
2023-04-17T14:34:37.208Z,10.82
2023-04-17T14:37:39.915Z,10.75
2023-04-17T14:40:42.661Z,10.64
2023-04-17T14:43:45.919Z,10.56
2023-04-17T14:46:50.473Z,10.70
2023-04-17T14:49:53.284Z,10.74
2023-04-17T14:52:56.776Z,10.73
2023-04-17T14:56:00.250Z,10.66
2023-04-17T14:59:03.104Z,10.49
2023-04-17T15:02:07.495Z,10.54
2023-04-17T15:05:11.128Z,10.65
2023-04-17T15:08:13.825Z,10.68
2023-04-17T15:11:16.980Z,10.46
2023-04-17T15:14:20.221Z,10.39
2023-04-17T15:17:24.308Z,10.53
2023-04-17T15:20:28.525Z,10.55
2023-04-17T15:23:31.406Z,10.72
2023-04-17T15:26:34.372Z,10.61
2023-04-17T15:29:37.119Z,10.64
2023-04-17T15:32:41.691Z,10.42
2023-04-17T15:35:44.809Z,10.61
2023-04-17T15:38:47.653Z,10.49
2023-04-17T15:41:50.850Z,10.32
2023-04-17T15:44:55.534Z,10.44
2023-04-17T15:48:00.840Z,10.35
2023-04-17T15:51:04.335Z,10.44
2023-04-17T15:54:07.314Z,10.38
2023-04-17T15:57:10.070Z,10.20
2023-04-17T16:00:14.076Z,10.19
2023-04-17T16:03:18.398Z,10.01
2023-04-17T16:06:21.574Z,10.07
2023-04-17T16:09:24.828Z,10.08
2023-04-17T16:12:28.165Z,10.10
2023-04-17T16:15:31.870Z,9.93
2023-04-17T16:18:36.430Z,9.68
2023-04-17T16:21:39.611Z,9.59
2023-04-17T16:24:42.402Z,9.57
2023-04-17T16:27:45.196Z,9.43
2023-04-17T16:30:49.152Z,9.58
2023-04-17T16:33:53.428Z,9.46
2023-04-17T16:36:56.282Z,9.55
2023-04-17T16:40:04.315Z,9.52
2023-04-17T16:43:07.572Z,9.53
2023-04-17T16:46:20.733Z,9.45
2023-04-17T16:49:26.928Z,9.37
2023-04-17T16:52:29.924Z,9.36
2023-04-17T16:55:32.757Z,9.33
2023-04-17T16:58:35.527Z,9.27
2023-04-17T17:01:38.370Z,9.18
2023-04-17T17:04:42.611Z,9.15
2023-04-17T17:07:45.579Z,9.27
2023-04-17T17:10:49.820Z,9.25
2023-04-17T17:13:54.027Z,9.22
2023-04-17T17:16:56.811Z,9.11
2023-04-17T17:20:00.991Z,9.30
2023-04-17T17:23:03.835Z,9.30
2023-04-17T17:26:07.125Z,9.30
2023-04-17T17:29:09.814Z,9.24
2023-04-17T17:32:14.186Z,9.30
2023-04-17T17:35:18.351Z,9.21
2023-04-17T17:38:21.076Z,9.19
2023-04-17T17:41:24.040Z,9.23
2023-04-17T17:44:26.715Z,9.22
2023-04-17T17:47:29.821Z,9.14
2023-04-17T17:50:33.960Z,9.13
2023-04-17T17:53:36.770Z,9.06
2023-04-17T17:56:39.605Z,8.92
2023-04-17T17:59:42.327Z,8.93
2023-04-17T18:02:45.268Z,9.01
2023-04-17T18:05:49.604Z,9.08
2023-04-17T18:08:52.884Z,9.11
2023-04-17T18:11:55.901Z,9.14
2023-04-17T18:14:58.604Z,9.09
2023-04-17T18:18:01.592Z,9.03
2023-04-17T18:21:08.295Z,8.94
2023-04-17T18:24:11.140Z,8.90
2023-04-17T18:27:14.195Z,8.87
2023-04-17T18:30:17.219Z,8.95
2023-04-17T18:33:20.308Z,8.92
2023-04-17T18:36:24.387Z,8.69
2023-04-17T18:39:27.207Z,8.86
2023-04-17T18:42:29.913Z,8.89
2023-04-17T18:45:32.634Z,8.80
2023-04-17T18:48:35.525Z,8.80
2023-04-17T18:51:39.576Z,8.71
2023-04-17T18:54:42.321Z,8.70
2023-04-17T18:57:45.076Z,8.71
2023-04-17T19:00:47.827Z,8.65
2023-04-17T19:03:51.161Z,8.53
2023-04-17T19:06:55.310Z,8.66
2023-04-17T19:09:58.043Z,8.66
2023-04-17T19:13:00.738Z,8.63
2023-04-17T19:16:03.668Z,8.67
2023-04-17T19:19:06.652Z,8.55
2023-04-17T19:22:10.765Z,8.56
2023-04-17T19:25:13.680Z,8.47
2023-04-17T19:28:16.436Z,8.45
2023-04-17T19:31:19.303Z,8.42
2023-04-17T19:34:22.133Z,8.51
2023-04-17T19:37:26.449Z,8.55
2023-04-17T19:40:29.480Z,8.48
2023-04-17T19:43:32.185Z,8.44
2023-04-17T19:46:35.071Z,8.40
2023-04-17T19:49:37.752Z,8.48
2023-04-17T19:52:43.226Z,8.33
2023-04-17T19:55:45.925Z,8.39
2023-04-17T19:58:48.728Z,8.12
2023-04-17T20:01:52.216Z,8.20
2023-04-17T20:04:54.956Z,8.34
2023-04-17T20:07:59.306Z,8.26
2023-04-17T20:11:02.052Z,8.35
2023-04-17T20:14:05.606Z,8.26
2023-04-17T20:17:08.525Z,8.28
2023-04-17T20:20:12.738Z,8.28
2023-04-17T20:23:16.949Z,8.39
2023-04-17T20:26:19.645Z,8.32
2023-04-17T20:29:23.196Z,8.24
2023-04-17T20:32:25.957Z,8.24
2023-04-17T20:35:28.886Z,8.21
2023-04-17T20:38:33.029Z,8.32
2023-04-17T20:41:37.290Z,8.23
2023-04-17T20:44:41.812Z,8.29
2023-04-17T20:50:51.007Z,8.23
2023-04-17T20:53:55.752Z,8.25
2023-04-17T20:56:58.594Z,8.29
2023-04-17T21:00:01.337Z,8.23
2023-04-17T21:03:04.412Z,8.22
2023-04-17T21:06:07.593Z,8.32
2023-04-17T21:09:14.225Z,8.19
2023-04-17T21:12:17.049Z,8.23
2023-04-17T21:15:19.878Z,8.15
2023-04-17T21:18:22.874Z,8.23
2023-04-17T21:21:26.231Z,8.10
2023-04-17T21:24:30.601Z,8.14
2023-04-17T21:27:33.478Z,7.98
2023-04-17T21:30:37.077Z,8.09
2023-04-17T21:33:40.181Z,8.05
2023-04-17T21:36:42.868Z,8.07
2023-04-17T21:39:47.086Z,8.06
2023-04-17T21:42:49.749Z,8.05
2023-04-17T21:45:52.707Z,8.02
2023-04-17T21:48:56.022Z,7.94
2023-04-17T21:51:58.720Z,7.91
2023-04-17T21:55:05.679Z,8.04
2023-04-17T21:58:08.590Z,7.96
2023-04-17T22:01:11.638Z,7.94
2023-04-17T22:04:14.782Z,7.92
2023-04-17T22:07:18.591Z,7.87
2023-04-17T22:10:23.141Z,7.87
2023-04-17T22:13:26.275Z,8.06
2023-04-17T22:16:29.293Z,8.05
2023-04-17T22:19:32.242Z,7.87
2023-04-17T22:22:35.195Z,8.01
2023-04-17T22:25:39.455Z,7.87
2023-04-17T22:28:42.470Z,7.86
2023-04-17T22:31:45.316Z,7.76
2023-04-17T22:34:49.414Z,7.77
2023-04-17T22:37:52.369Z,7.76
2023-04-17T22:40:57.776Z,7.74
2023-04-17T22:44:04.528Z,7.59
2023-04-17T22:47:07.479Z,7.69
2023-04-17T22:50:11.900Z,7.49
2023-04-17T22:53:15.047Z,7.47
2023-04-17T22:56:19.399Z,7.43
2023-04-17T22:59:22.409Z,7.35
2023-04-17T23:02:26.033Z,7.55
2023-04-17T23:05:28.971Z,7.56
2023-04-17T23:08:32.301Z,7.54
2023-04-17T23:11:37.011Z,7.53
2023-04-17T23:14:39.938Z,7.36
2023-04-17T23:17:43.198Z,7.33
2023-04-17T23:20:46.511Z,7.31
2023-04-17T23:23:49.449Z,7.20
2023-04-17T23:26:55.178Z,7.25
2023-04-17T23:29:59.048Z,7.18
2023-04-17T23:33:01.927Z,7.17
2023-04-17T23:36:05.152Z,7.12
2023-04-17T23:39:08.094Z,7.06
2023-04-17T23:42:12.486Z,7.00
2023-04-17T23:45:15.598Z,7.08
2023-04-17T23:48:18.733Z,7.00
2023-04-17T23:51:22.139Z,7.03
2023-04-17T23:54:25.458Z,7.11
2023-04-17T23:57:30.948Z,7.05
